Time;durP1;ratioP1;P1;durP2;ratioP2;P2;SDS_P1;SDS_P2;PMS_P1;PMS_P2;Temp;Humidity;BMP_temperature;BMP_pressure;BME280_temperature;BME280_humidity;BME280_pressure;Samples;Min_cycle;Max_cycle;Signal;HPM_P1;HPM_P2
2022/11/15 00:01:25;;;;;;;;;;;;;;;6.84;74.53;101404.44;5064565;28;19920;-55
2022/11/15 00:03:51;;;;;;;;;;;;;;;6.82;74.67;101408.00;5067573;28;19917;-54
2022/11/15 00:06:16;;;;;;;;;;;;;;;6.75;74.64;101403.88;5066133;28;20314;-55
2022/11/15 00:08:41;;;;;;;;;;;;;;;6.73;74.61;101396.06;5061150;28;19920;-54
2022/11/15 00:11:09;;;;;;;;;;;;;;;6.69;74.39;101405.78;5066331;28;19920;-55
2022/11/15 00:13:34;;;;;;;;;;;;;;;6.65;74.46;101391.09;5065972;28;19924;-54
2022/11/15 00:16:01;;;;;;;;;;;;;;;6.64;74.57;101388.53;5064278;28;19928;-55
2022/11/15 00:18:26;;;;;;;;;;;;;;;6.63;74.84;101392.03;5061352;28;19972;-54
2022/11/15 00:20:52;;;;;;;;;;;;;;;6.61;74.88;101386.84;5059389;28;19975;-54
2022/11/15 00:23:17;;;;;;;;;;;;;;;6.56;74.67;101380.91;5070133;28;19925;-55
2022/11/15 00:25:42;;;;;;;;;;;;;;;6.54;74.77;101382.72;5066649;28;19927;-54
2022/11/15 00:28:08;;;;;;;;;;;;;;;6.54;74.80;101374.88;5060960;28;19921;-54
2022/11/15 00:30:34;;;;;;;;;;;;;;;6.52;74.66;101369.69;5063364;28;20371;-54
2022/11/15 00:33:03;;;;;;;;;;;;;;;6.47;74.49;101370.72;5067133;28;19967;-54
2022/11/15 00:35:31;;;;;;;;;;;;;;;6.43;74.62;101379.59;5063109;28;19928;-55
2022/11/15 00:37:56;;;;;;;;;;;;;;;6.38;74.97;101374.47;5055492;28;19917;-54
2022/11/15 00:40:21;;;;;;;;;;;;;;;6.33;74.87;101360.69;5061876;28;19983;-54
2022/11/15 00:42:47;;;;;;;;;;;;;;;6.30;74.61;101360.78;5066322;28;20010;-54
2022/11/15 00:45:12;;;;;;;;;;;;;;;6.27;74.61;101355.66;5067332;28;19925;-54
2022/11/15 00:47:37;;;;;;;;;;;;;;;6.25;74.88;101360.94;5066592;28;19924;-54
2022/11/15 00:50:03;;;;;;;;;;;;;;;6.25;74.55;101355.69;5062542;28;19920;-54
2022/11/15 00:52:29;;;;;;;;;;;;;;;6.25;74.80;101347.88;5071132;28;19979;-54
2022/11/15 00:54:54;;;;;;;;;;;;;;;6.26;74.69;101349.56;5067488;28;19928;-54
2022/11/15 00:57:19;;;;;;;;;;;;;;;6.29;74.89;101340.78;5066602;28;19924;-54
2022/11/15 00:59:44;;;;;;;;;;;;;;;6.28;74.83;101339.91;5068175;28;19927;-55
2022/11/15 01:02:10;;;;;;;;;;;;;;;6.27;74.88;101333.00;5066517;28;20015;-55
2022/11/15 01:04:35;;;;;;;;;;;;;;;6.29;74.93;101335.56;5065789;28;19920;-54
2022/11/15 01:07:00;;;;;;;;;;;;;;;6.32;75.22;101331.06;5065423;28;19928;-54
2022/11/15 01:09:26;;;;;;;;;;;;;;;6.37;75.00;101325.69;5065885;28;19923;-54
2022/11/15 01:11:51;;;;;;;;;;;;;;;6.39;75.01;101323.91;5068594;28;19920;-54
2022/11/15 01:14:17;;;;;;;;;;;;;;;6.43;74.82;101332.53;5070274;28;19959;-54
2022/11/15 01:16:42;;;;;;;;;;;;;;;6.43;75.40;101322.91;5067631;28;19932;-54
2022/11/15 01:19:07;;;;;;;;;;;;;;;6.46;75.19;101316.72;5070190;28;19920;-54
2022/11/15 01:21:33;;;;;;;;;;;;;;;6.48;75.26;101320.16;5061494;28;19989;-54
2022/11/15 01:23:58;;;;;;;;;;;;;;;6.49;75.50;101311.41;5068144;28;19921;-55
2022/11/15 01:26:24;;;;;;;;;;;;;;;6.53;75.18;101302.56;5060137;28;19935;-54
2022/11/15 01:28:50;;;;;;;;;;;;;;;6.53;75.34;101305.19;5062060;28;19947;-54
2022/11/15 01:31:17;;;;;;;;;;;;;;;6.55;75.37;101296.38;5062742;28;19917;-54
2022/11/15 01:33:43;;;;;;;;;;;;;;;6.55;75.29;101299.00;5071697;28;19925;-54
2022/11/15 01:36:11;;;;;;;;;;;;;;;6.61;75.54;101300.53;5065382;28;19936;-54
2022/11/15 01:38:37;;;;;;;;;;;;;;;6.66;75.18;101303.88;5069958;28;20318;-54
2022/11/15 01:41:02;;;;;;;;;;;;;;;6.68;74.97;101286.38;5064071;28;19931;-54
2022/11/15 01:43:29;;;;;;;;;;;;;;;6.70;75.25;101295.03;5064086;28;19978;-54
2022/11/15 01:45:58;;;;;;;;;;;;;;;6.72;75.27;101287.13;5068786;28;20515;-54
2022/11/15 01:48:27;;;;;;;;;;;;;;;6.76;75.17;101285.25;5061804;28;20295;-55
2022/11/15 01:50:52;;;;;;;;;;;;;;;6.77;75.51;101284.34;5065816;28;19959;-55
2022/11/15 01:53:19;;;;;;;;;;;;;;;6.79;75.29;101285.16;5066459;28;19966;-54
2022/11/15 01:55:45;;;;;;;;;;;;;;;6.82;75.39;101278.06;5064955;28;20387;-55
2022/11/15 01:58:10;;;;;;;;;;;;;;;6.84;75.44;101275.41;5072601;28;19974;-57
2022/11/15 02:00:35;;;;;;;;;;;;;;;6.86;75.07;101273.59;5069736;28;20043;-51
2022/11/15 02:03:02;;;;;;;;;;;;;;;6.89;75.35;101267.41;5069624;28;19924;-54
2022/11/15 02:05:27;;;;;;;;;;;;;;;6.90;75.13;101275.19;5070112;28;19916;-54
2022/11/15 02:07:53;;;;;;;;;;;;;;;6.91;74.70;101266.44;5052390;28;20291;-53
2022/11/15 02:10:20;;;;;;;;;;;;;;;6.88;74.69;101257.84;5066922;28;19923;-53
2022/11/15 02:12:45;;;;;;;;;;;;;;;6.83;74.99;101268.47;5065300;28;19916;-56
2022/11/15 02:15:11;;;;;;;;;;;;;;;6.80;75.16;101263.34;5070007;28;19931;-56
2022/11/15 02:17:39;;;;;;;;;;;;;;;6.78;75.09;101265.16;5067887;28;19974;-56
2022/11/15 02:20:28;;;;;;;;;;;;;;;6.77;75.28;101263.44;5055358;28;21224;-54
2022/11/15 02:23:05;;;;;;;;;;;;;;;6.76;75.26;101267.81;5065841;28;20025;-54
2022/11/15 02:25:39;;;;;;;;;;;;;;;6.74;75.33;101263.53;5071694;28;19917;-52
2022/11/15 02:28:14;;;;;;;;;;;;;;;6.74;75.84;101274.00;5075839;28;19916;-54
2022/11/15 02:30:54;;;;;;;;;;;;;;;6.76;75.43;101266.94;5065593;28;20414;-57
2022/11/15 02:33:22;;;;;;;;;;;;;;;6.75;75.57;101260.00;5056252;28;20272;-54
2022/11/15 02:35:52;;;;;;;;;;;;;;;6.73;75.51;101261.84;5068765;28;20669;-57
2022/11/15 02:38:20;;;;;;;;;;;;;;;6.70;75.95;101263.66;5064497;28;20307;-54
2022/11/15 02:40:45;;;;;;;;;;;;;;;6.70;75.80;101258.41;5061756;28;19946;-53
2022/11/15 02:46:10;;;;;;;;;;;;;;;6.72;75.94;101253.13;5064170;28;19986;-57
2022/11/15 02:48:36;;;;;;;;;;;;;;;6.75;75.61;101250.41;5067695;28;19929;-58
2022/11/15 02:51:02;;;;;;;;;;;;;;;6.79;75.73;101243.31;5070070;28;20037;-54
2022/11/15 02:53:27;;;;;;;;;;;;;;;6.78;75.80;101245.09;5066261;28;19928;-55
2022/11/15 02:55:53;;;;;;;;;;;;;;;6.78;75.79;101231.13;5063349;28;19931;-54
2022/11/15 02:58:27;;;;;;;;;;;;;;;6.79;75.62;101238.94;5065446;28;19952;-53
2022/11/15 03:01:13;;;;;;;;;;;;;;;6.83;75.70;101234.47;5057304;28;19921;-54
2022/11/15 03:03:57;;;;;;;;;;;;;;;6.82;75.91;101230.13;5062085;28;19921;-54
2022/11/15 03:06:28;;;;;;;;;;;;;;;6.84;75.91;101233.56;5066141;28;19916;-53
2022/11/15 03:08:57;;;;;;;;;;;;;;;6.85;75.64;101235.28;5065641;28;19920;-57
2022/11/15 03:11:23;;;;;;;;;;;;;;;6.84;75.68;101233.56;5063422;28;20497;-55
2022/11/15 03:14:21;;;;;;;;;;;;;;;6.89;75.76;101229.00;5067980;28;20422;-53
2022/11/15 03:16:49;;;;;;;;;;;;;;;6.92;75.46;101234.13;5031622;28;19947;-53
2022/11/15 03:19:14;;;;;;;;;;;;;;;6.94;75.56;101227.09;5062669;28;19956;-57
2022/11/15 03:21:40;;;;;;;;;;;;;;;6.94;75.52;101223.63;5064529;28;20339;-54
2022/11/15 03:24:07;;;;;;;;;;;;;;;6.93;75.35;101225.38;5042977;28;20047;-52
2022/11/15 03:26:33;;;;;;;;;;;;;;;6.95;75.48;101215.72;5065879;28;20272;-54
2022/11/15 03:29:07;;;;;;;;;;;;;;;6.96;75.57;101222.66;5063901;28;19928;-55
2022/11/15 03:31:48;;;;;;;;;;;;;;;6.94;75.57;101224.47;5069111;28;19920;-54
2022/11/15 03:34:19;;;;;;;;;;;;;;;6.94;75.74;101219.25;5070236;28;20348;-52
2022/11/15 03:36:44;;;;;;;;;;;;;;;6.94;75.78;101207.94;5071702;28;19916;-51
2022/11/15 03:39:11;;;;;;;;;;;;;;;6.93;75.71;101217.53;5066870;28;20067;-54
2022/11/15 03:41:41;;;;;;;;;;;;;;;6.95;75.51;101217.50;5074312;28;19930;-57
2022/11/15 03:44:11;;;;;;;;;;;;;;;6.94;75.35;101214.00;5071639;28;19916;-56
2022/11/15 03:46:40;;;;;;;;;;;;;;;6.97;75.31;101229.59;5066267;28;20011;-53
2022/11/15 03:49:26;;;;;;;;;;;;;;;7.06;75.25;101222.31;5067796;28;19920;-56
2022/11/15 03:51:51;;;;;;;;;;;;;;;7.03;75.30;101225.91;5073219;28;19920;-54
2022/11/15 03:54:16;;;;;;;;;;;;;;;7.04;75.22;101226.75;5069253;28;19970;-54
2022/11/15 03:56:42;;;;;;;;;;;;;;;7.03;75.26;101228.53;5062850;28;20367;-52
2022/11/15 03:59:07;;;;;;;;;;;;;;;7.03;75.29;101225.09;5067531;28;19927;-55
2022/11/15 04:01:32;;;;;;;;;;;;;;;7.04;75.25;101224.13;5068751;28;19928;-54
2022/11/15 04:03:58;;;;;;;;;;;;;;;7.02;75.27;101216.34;5065430;28;19916;-54
2022/11/15 04:06:23;;;;;;;;;;;;;;;7.01;75.32;101214.66;5061892;28;19925;-55
2022/11/15 04:08:48;;;;;;;;;;;;;;;7.01;74.84;101212.91;5064662;28;19985;-56
2022/11/15 04:11:14;;;;;;;;;;;;;;;6.97;75.31;101207.81;5040612;28;20632;-59
2022/11/15 04:13:39;;;;;;;;;;;;;;;6.93;75.34;101217.53;5065342;28;19921;-53
2022/11/15 04:16:04;;;;;;;;;;;;;;;6.94;75.40;101211.41;5062243;28;20951;-54
2022/11/15 04:18:29;;;;;;;;;;;;;;;6.95;75.20;101215.72;5061229;28;19928;-52
2022/11/15 04:26:21;;;;;;;;;;;;;;;6.94;75.16;101221.03;5078151;28;19935;-54
2022/11/15 04:31:31;;;;;;;;;;;;;;;6.91;75.06;101211.50;5083136;28;19927;-55
2022/11/15 04:33:56;;;;;;;;;;;;;;;6.93;75.09;101214.06;5078247;28;19927;-53
2022/11/15 04:39:06;;;;;;;;;;;;;;;6.90;75.17;101206.31;5072678;28;20340;-53
2022/11/15 04:41:31;;;;;;;;;;;;;;;6.89;74.99;101207.22;5080552;28;20427;-55
2022/11/15 04:43:56;;;;;;;;;;;;;;;6.87;75.34;101204.69;5080119;28;19955;-53
2022/11/15 04:46:23;;;;;;;;;;;;;;;6.86;75.45;101205.59;5082076;28;20011;-53
2022/11/15 04:48:48;;;;;;;;;;;;;;;6.89;75.27;101199.38;5077352;28;19916;-56
2022/11/15 04:51:14;;;;;;;;;;;;;;;6.87;75.36;101196.84;5081890;28;20471;-55
2022/11/15 04:53:39;;;;;;;;;;;;;;;6.89;75.14;101194.16;5080319;28;20024;-58
2022/11/15 04:56:04;;;;;;;;;;;;;;;6.90;75.29;101199.31;5083224;28;19920;-52
2022/11/15 04:58:29;;;;;;;;;;;;;;;6.91;75.12;101198.41;5085314;28;20002;-56
2022/11/15 05:00:55;;;;;;;;;;;;;;;6.90;75.01;101199.31;5079012;28;19931;-52
2022/11/15 05:06:04;;;;;;;;;;;;;;;6.86;75.09;101200.34;5077319;28;20333;-55
2022/11/15 05:08:30;;;;;;;;;;;;;;;6.87;75.05;101199.44;5083148;28;19916;-55
2022/11/15 05:10:55;;;;;;;;;;;;;;;6.89;75.28;101200.22;5075239;28;20421;-55
2022/11/15 05:13:20;;;;;;;;;;;;;;;6.86;75.10;101197.75;5084040;28;19924;-54
2022/11/15 05:15:46;;;;;;;;;;;;;;;6.86;75.15;101197.75;5075777;28;19923;-56
2022/11/15 05:18:13;;;;;;;;;;;;;;;6.83;75.07;101200.47;5083024;28;19926;-53
2022/11/15 05:20:38;;;;;;;;;;;;;;;6.84;75.15;101196.94;5079092;28;19920;-55
2022/11/15 05:23:03;;;;;;;;;;;;;;;6.80;75.25;101195.31;5074433;28;20861;-53
2022/11/15 05:25:29;;;;;;;;;;;;;;;6.81;74.98;101199.66;5075859;28;19928;-54
2022/11/15 05:27:54;;;;;;;;;;;;;;;6.81;75.24;101203.09;5072220;28;19943;-57
2022/11/15 05:30:20;;;;;;;;;;;;;;;6.82;75.08;101202.19;5079633;28;19943;-60
2022/11/15 05:32:45;;;;;;;;;;;;;;;6.82;75.14;101193.50;5084430;28;19973;-55
2022/11/15 05:35:18;;;;;;;;;;;;;;;6.84;75.00;101200.41;5081439;28;19927;-53
2022/11/15 05:37:43;;;;;;;;;;;;;;;6.83;74.73;101190.00;5088682;28;19927;-55
2022/11/15 05:40:09;;;;;;;;;;;;;;;6.84;74.96;101189.09;5088415;28;20367;-52
2022/11/15 05:42:34;;;;;;;;;;;;;;;6.82;74.72;101194.34;5091681;28;19927;-51
2022/11/15 05:45:02;;;;;;;;;;;;;;;6.81;74.84;101191.81;5093761;28;20061;-51
2022/11/15 05:47:29;;;;;;;;;;;;;;;6.81;74.84;101197.03;5093768;28;19923;-50
2022/11/15 05:49:55;;;;;;;;;;;;;;;6.79;74.81;101194.50;5090763;28;19919;-54
2022/11/15 05:52:24;;;;;;;;;;;;;;;6.78;75.04;101186.66;5095033;28;19924;-54
2022/11/15 05:54:50;;;;;;;;;;;;;;;6.77;74.94;101190.19;5085935;28;20003;-53
2022/11/15 05:57:15;;;;;;;;;;;;;;;6.75;74.95;101185.03;5085326;28;20023;-56
2022/11/15 05:59:43;;;;;;;;;;;;;;;6.73;75.33;101191.22;5086313;28;19916;-55
2022/11/15 06:02:08;;;;;;;;;;;;;;;6.71;75.39;101189.53;5087141;28;20005;-53
2022/11/15 06:04:33;;;;;;;;;;;;;;;6.73;75.10;101199.06;5095763;28;19959;-54
2022/11/15 06:06:59;;;;;;;;;;;;;;;6.74;75.37;101193.78;5093092;28;19923;-53
2022/11/15 06:09:24;;;;;;;;;;;;;;;6.72;75.01;101192.97;5092829;28;19920;-55
2022/11/15 06:11:49;;;;;;;;;;;;;;;6.72;75.08;101192.97;5096241;28;20387;-56
2022/11/15 06:14:15;;;;;;;;;;;;;;;6.71;75.20;101194.75;5074203;28;19924;-53
2022/11/15 06:16:40;;;;;;;;;;;;;;;6.71;75.02;101197.38;5087896;28;20314;-57
2022/11/15 06:19:06;;;;;;;;;;;;;;;6.70;75.01;101195.66;5095961;28;19947;-54
2022/11/15 06:21:31;;;;;;;;;;;;;;;6.72;75.30;101203.44;5093023;28;20018;-55
2022/11/15 06:23:56;;;;;;;;;;;;;;;6.72;75.07;101190.34;5095186;28;19931;-55
2022/11/15 06:26:22;;;;;;;;;;;;;;;6.71;75.20;101202.59;5089383;28;20462;-54
2022/11/15 06:28:47;;;;;;;;;;;;;;;6.74;74.75;101205.97;5093035;28;19934;-54
2022/11/15 06:31:12;;;;;;;;;;;;;;;6.73;74.76;101202.53;5091675;28;20020;-55
2022/11/15 06:33:38;;;;;;;;;;;;;;;6.73;74.77;101206.91;5091818;28;19916;-54
2022/11/15 06:36:05;;;;;;;;;;;;;;;6.73;75.00;101209.53;5094606;28;19970;-54
2022/11/15 06:38:30;;;;;;;;;;;;;;;6.74;74.65;101205.97;5092601;28;19947;-54
2022/11/15 06:41:01;;;;;;;;;;;;;;;6.75;75.02;101207.69;5095385;28;19966;-53
2022/11/15 06:43:26;;;;;;;;;;;;;;;6.73;74.89;101204.31;5095308;28;19920;-54
2022/11/15 06:45:51;;;;;;;;;;;;;;;6.73;74.90;101204.31;5094672;28;19965;-55
2022/11/15 06:48:17;;;;;;;;;;;;;;;6.74;74.93;101201.63;5081897;28;19920;-54
2022/11/15 06:50:42;;;;;;;;;;;;;;;6.74;74.95;101205.97;5091257;28;19943;-54
2022/11/15 06:53:07;;;;;;;;;;;;;;;6.74;74.85;101205.97;5092755;28;19917;-55
2022/11/15 06:55:33;;;;;;;;;;;;;;;6.77;75.00;101206.75;5091267;28;19924;-54
2022/11/15 06:57:58;;;;;;;;;;;;;;;6.77;74.95;101216.34;5096874;28;19915;-54
2022/11/15 07:00:23;;;;;;;;;;;;;;;6.74;75.01;101205.97;5086570;28;20018;-54
2022/11/15 07:02:49;;;;;;;;;;;;;;;6.74;75.08;101209.47;5087630;28;20421;-55
2022/11/15 07:05:14;;;;;;;;;;;;;;;6.74;75.10;101212.09;5096099;28;20351;-53
2022/11/15 07:07:40;;;;;;;;;;;;;;;6.75;74.64;101211.19;5084025;28;19923;-54
2022/11/15 07:10:05;;;;;;;;;;;;;;;6.77;74.78;101216.34;5100034;28;19919;-53
2022/11/15 07:12:31;;;;;;;;;;;;;;;6.78;74.96;101216.31;5092043;28;19924;-54
2022/11/15 07:14:56;;;;;;;;;;;;;;;6.81;74.97;101217.97;5092576;28;19924;-54
2022/11/15 07:17:21;;;;;;;;;;;;;;;6.78;74.96;101212.81;5093608;28;19920;-54
2022/11/15 07:19:46;;;;;;;;;;;;;;;6.79;74.87;101210.19;5093569;28;20026;-54
2022/11/15 07:22:12;;;;;;;;;;;;;;;6.79;74.86;101217.16;5090393;28;19924;-54
2022/11/15 07:24:37;;;;;;;;;;;;;;;6.79;74.71;101225.00;5100814;28;19916;-54
2022/11/15 07:29:30;;;;;;;;;;;;;;;6.80;74.60;101230.19;5025844;28;19925;-57
2022/11/15 07:31:55;;;;;;;;;;;;;;;6.82;74.44;101230.97;5030454;28;20288;-58
2022/11/15 07:34:21;;;;;;;;;;;;;;;6.84;74.80;101223.94;5016750;28;19917;-58
2022/11/15 07:36:46;;;;;;;;;;;;;;;6.87;74.56;101223.00;5022966;28;19921;-58
2022/11/15 07:39:12;;;;;;;;;;;;;;;6.92;74.91;101222.84;5047817;28;19917;-58
2022/11/15 07:41:38;;;;;;;;;;;;;;;6.96;74.69;101225.28;5044516;28;19975;-57
2022/11/15 07:44:03;;;;;;;;;;;;;;;6.94;74.66;101234.09;5020727;28;19932;-57
2022/11/15 07:46:29;;;;;;;;;;;;;;;6.96;74.50;101237.50;5048824;28;19917;-57
2022/11/15 07:48:54;;;;;;;;;;;;;;;7.00;74.11;101229.50;5051909;28;20335;-57
2022/11/15 07:51:19;;;;;;;;;;;;;;;7.00;74.21;101234.75;5052552;28;20019;-57
2022/11/15 07:53:45;;;;;;;;;;;;;;;6.99;74.13;101233.03;5047191;28;19924;-58
2022/11/15 07:56:11;;;;;;;;;;;;;;;6.98;74.49;101228.69;5054018;28;19923;-58
2022/11/15 07:58:36;;;;;;;;;;;;;;;6.99;74.26;101233.03;5048135;28;20004;-60
2022/11/15 08:01:02;;;;;;;;;;;;;;;6.97;74.26;101236.59;5046082;28;20008;-58
2022/11/15 08:03:28;;;;;;;;;;;;;;;6.99;74.57;101234.78;5045590;28;19929;-59
2022/11/15 08:05:53;;;;;;;;;;;;;;;6.98;74.38;101236.56;5047661;28;19975;-60
2022/11/15 08:08:18;;;;;;;;;;;;;;;7.00;74.57;101239.97;5044578;28;19945;-58
2022/11/15 08:10:44;;;;;;;;;;;;;;;7.04;74.54;101235.47;5028916;28;19921;-57
2022/11/15 08:13:11;;;;;;;;;;;;;;;7.07;74.12;101244.97;5047410;28;19916;-58
2022/11/15 08:15:37;;;;;;;;;;;;;;;7.08;74.21;101238.84;5047023;28;20003;-57
2022/11/15 08:18:03;;;;;;;;;;;;;;;7.11;74.33;101230.88;5044019;28;20020;-60
2022/11/15 08:20:29;;;;;;;;;;;;;;;7.13;74.25;101236.91;5051311;28;20280;-59
2022/11/15 08:22:56;;;;;;;;;;;;;;;7.13;74.27;101231.69;5047217;28;19924;-57
2022/11/15 08:25:21;;;;;;;;;;;;;;;7.15;74.38;101227.25;5048399;28;19917;-61
2022/11/15 08:27:46;;;;;;;;;;;;;;;7.17;74.32;101228.06;5047550;28;19993;-58
2022/11/15 08:30:12;;;;;;;;;;;;;;;7.21;74.12;101226.19;5048521;28;19920;-58
2022/11/15 08:32:37;;;;;;;;;;;;;;;7.21;73.93;101227.03;5051455;28;19917;-57
2022/11/15 08:35:03;;;;;;;;;;;;;;;7.25;74.00;101230.41;5051027;28;19987;-58
2022/11/15 08:37:28;;;;;;;;;;;;;;;7.26;74.42;101224.25;5030167;28;19912;-61
2022/11/15 08:39:53;;;;;;;;;;;;;;;7.31;74.02;101220.56;5046635;28;20407;-60
2022/11/15 08:42:19;;;;;;;;;;;;;;;7.33;74.04;101221.34;5052211;28;20386;-58
2022/11/15 08:44:44;;;;;;;;;;;;;;;7.40;74.09;101215.88;5032836;28;19917;-59
2022/11/15 08:47:13;;;;;;;;;;;;;;;7.43;73.96;101216.63;5047079;28;19920;-57
2022/11/15 08:49:38;;;;;;;;;;;;;;;7.48;73.75;101222.56;5050257;28;20430;-60
2022/11/15 08:52:04;;;;;;;;;;;;;;;7.47;73.53;101220.00;5049745;28;19917;-58
2022/11/15 08:54:29;;;;;;;;;;;;;;;7.53;73.65;101209.28;5046705;28;19921;-60
2022/11/15 08:56:54;;;;;;;;;;;;;;;7.57;73.29;101217.88;5045848;28;19924;-59
2022/11/15 08:59:20;;;;;;;;;;;;;;;7.56;73.34;101216.19;5044553;28;19921;-58
2022/11/15 09:01:45;;;;;;;;;;;;;;;7.58;73.27;101215.22;5047915;28;19971;-59
2022/11/15 09:04:10;;;;;;;;;;;;;;;7.63;73.17;101210.66;5047590;28;19925;-58
2022/11/15 09:06:35;;;;;;;;;;;;;;;7.66;72.94;101211.44;5050188;28;19916;-57
2022/11/15 09:09:01;;;;;;;;;;;;;;;7.68;72.94;101222.72;5042330;28;19921;-57
2022/11/15 09:11:27;;;;;;;;;;;;;;;7.70;73.06;101206.03;5051870;28;19921;-60
2022/11/15 09:13:53;;;;;;;;;;;;;;;7.70;72.91;101213.03;5048660;28;19964;-58
2022/11/15 09:16:18;;;;;;;;;;;;;;;7.73;72.97;101218.16;5048786;28;20398;-57
2022/11/15 09:18:44;;;;;;;;;;;;;;;7.78;72.72;101218.84;5048855;28;19925;-57
2022/11/15 09:21:09;;;;;;;;;;;;;;;7.84;72.58;101212.50;5050811;28;19935;-58
2022/11/15 09:23:35;;;;;;;;;;;;;;;7.79;72.51;101217.91;5042846;28;19928;-58
2022/11/15 09:26:02;;;;;;;;;;;;;;;7.80;72.52;101211.75;5034605;28;19983;-58
2022/11/15 09:28:28;;;;;;;;;;;;;;;7.84;72.67;101213.34;5048420;28;19964;-58
2022/11/15 09:31:03;;;;;;;;;;;;;;;7.88;72.17;101209.72;5046273;28;19980;-58
2022/11/15 09:33:28;;;;;;;;;;;;;;;7.88;72.33;101206.22;5019537;28;20007;-60
2022/11/15 09:35:54;;;;;;;;;;;;;;;7.88;72.26;101212.31;5045311;28;20792;-59
2022/11/15 09:38:20;;;;;;;;;;;;;;;7.89;72.31;101214.03;5044784;28;19939;-57
2022/11/15 09:40:48;;;;;;;;;;;;;;;7.88;72.36;101217.56;5039620;28;19935;-58
2022/11/15 09:43:39;;;;;;;;;;;;;;;7.90;72.27;101225.34;5046211;28;19920;-58
2022/11/15 09:46:30;;;;;;;;;;;;;;;7.94;72.08;101217.31;5040560;28;19916;-57
2022/11/15 09:48:57;;;;;;;;;;;;;;;7.99;72.13;101209.28;5040189;28;20398;-58
2022/11/15 09:51:27;;;;;;;;;;;;;;;8.00;72.19;101210.13;5043299;28;19917;-58
2022/11/15 09:53:55;;;;;;;;;;;;;;;7.96;71.86;101213.78;5044576;28;20000;-58
2022/11/15 09:56:22;;;;;;;;;;;;;;;8.00;72.07;101218.00;5045037;28;19924;-57
2022/11/15 09:58:50;;;;;;;;;;;;;;;7.99;72.02;101208.41;5047141;28;20522;-59
2022/11/15 10:01:34;;;;;;;;;;;;;;;8.01;71.79;101207.47;5050497;28;20067;-61
2022/11/15 10:04:00;;;;;;;;;;;;;;;7.99;71.92;101211.91;5045454;28;19930;-58
2022/11/15 10:06:26;;;;;;;;;;;;;;;8.02;71.96;101209.16;5030498;28;19925;-60
2022/11/15 10:08:51;;;;;;;;;;;;;;;8.02;71.85;101203.06;5046405;28;19928;-57
2022/11/15 10:11:24;;;;;;;;;;;;;;;8.03;71.85;101191.66;5035270;28;19913;-58
2022/11/15 10:13:51;;;;;;;;;;;;;;;8.06;71.83;101192.41;5042975;28;19923;-58
2022/11/15 10:16:35;;;;;;;;;;;;;;;8.12;71.97;101180.81;5039051;28;20384;-58
2022/11/15 10:19:00;;;;;;;;;;;;;;;8.17;71.93;101191.97;5048877;28;20380;-60
2022/11/15 10:21:44;;;;;;;;;;;;;;;8.23;71.72;101181.25;5053092;28;19913;-58
2022/11/15 10:24:11;;;;;;;;;;;;;;;8.29;71.63;101174.91;5047179;28;19942;-58
2022/11/15 10:26:36;;;;;;;;;;;;;;;8.32;71.52;101174.75;5048183;28;19920;-58
2022/11/15 10:29:02;;;;;;;;;;;;;;;8.34;71.81;101166.84;5051195;28;19921;-60
2022/11/15 10:31:28;;;;;;;;;;;;;;;8.34;71.73;101177.31;5047250;28;19948;-60
2022/11/15 10:34:11;;;;;;;;;;;;;;;8.37;71.69;101177.19;5051979;28;20484;-59
2022/11/15 10:36:37;;;;;;;;;;;;;;;8.37;71.94;101182.44;5045733;28;19917;-58
2022/11/15 10:39:02;;;;;;;;;;;;;;;8.39;72.08;101170.97;5049315;28;19938;-59
2022/11/15 10:41:31;;;;;;;;;;;;;;;8.42;72.31;101175.22;5043116;28;19934;-58
2022/11/15 10:44:02;;;;;;;;;;;;;;;8.46;72.22;101166.31;5039723;28;19920;-57
2022/11/15 10:46:27;;;;;;;;;;;;;;;8.47;72.53;101168.03;5044754;28;20387;-60
2022/11/15 10:48:52;;;;;;;;;;;;;;;8.50;71.86;101162.69;5032407;28;19927;-60
2022/11/15 10:51:28;;;;;;;;;;;;;;;8.51;71.81;101156.53;5047971;28;19921;-58
2022/11/15 10:53:56;;;;;;;;;;;;;;;8.51;71.84;101151.28;5054132;28;19921;-58
2022/11/15 10:56:22;;;;;;;;;;;;;;;8.54;71.74;101156.41;5055519;28;19912;-58
2022/11/15 10:58:53;;;;;;;;;;;;;;;8.54;71.81;101156.41;5047252;28;20284;-59
2022/11/15 11:01:27;;;;;;;;;;;;;;;8.58;71.63;101170.22;5046285;28;20346;-58
2022/11/15 11:04:08;;;;;;;;;;;;;;;8.64;71.90;101161.25;5056170;28;19928;-58
2022/11/15 11:06:50;;;;;;;;;;;;;;;8.63;71.78;101162.16;5042355;28;19967;-57
2022/11/15 11:09:22;;;;;;;;;;;;;;;8.60;71.95;101159.66;5051642;28;19978;-58
2022/11/15 11:11:52;;;;;;;;;;;;;;;8.66;71.95;101162.03;5050094;28;20314;-59
2022/11/15 11:14:24;;;;;;;;;;;;;;;8.65;71.84;101163.78;5053529;28;19940;-57
2022/11/15 11:17:08;;;;;;;;;;;;;;;8.65;72.00;101150.66;5044589;28;19924;-60
2022/11/15 11:19:36;;;;;;;;;;;;;;;8.66;72.19;101148.91;5046585;28;19921;-58
2022/11/15 11:22:05;;;;;;;;;;;;;;;8.67;72.05;101146.22;5047431;28;19917;-61
2022/11/15 11:24:34;;;;;;;;;;;;;;;8.66;72.27;101144.50;5045409;28;19920;-57
2022/11/15 11:26:59;;;;;;;;;;;;;;;8.68;72.17;101139.22;5043284;28;19917;-58
2022/11/15 11:29:43;;;;;;;;;;;;;;;8.69;72.24;101135.66;5044533;28;19933;-61
2022/11/15 11:32:29;;;;;;;;;;;;;;;8.76;72.37;101131.84;5045741;28;19943;-57
2022/11/15 11:35:03;;;;;;;;;;;;;;;8.83;72.38;101133.28;5017817;28;20375;-59
2022/11/15 11:37:47;;;;;;;;;;;;;;;8.89;72.19;101126.03;5051055;28;19919;-58
2022/11/15 11:40:18;;;;;;;;;;;;;;;8.92;72.31;101123.28;5057454;28;19939;-60
2022/11/15 11:42:57;;;;;;;;;;;;;;;8.94;72.35;101122.28;5042742;28;19927;-57
2022/11/15 11:45:42;;;;;;;;;;;;;;;8.98;72.33;101115.16;5025457;28;19925;-58
2022/11/15 11:48:20;;;;;;;;;;;;;;;9.01;72.35;101109.75;5049199;28;19916;-58
2022/11/15 11:50:45;;;;;;;;;;;;;;;9.02;72.36;101111.44;5046817;28;20403;-56
2022/11/15 11:53:14;;;;;;;;;;;;;;;9.06;72.29;101114.81;5052836;28;19925;-56
2022/11/15 11:55:42;;;;;;;;;;;;;;;9.06;72.28;101101.69;5048063;28;19917;-56
2022/11/15 11:58:17;;;;;;;;;;;;;;;9.07;72.51;101108.63;5044973;28;19916;-57
2022/11/15 12:00:54;;;;;;;;;;;;;;;9.10;72.35;101104.09;5043676;28;20435;-57
2022/11/15 12:03:29;;;;;;;;;;;;;;;9.09;72.51;101101.53;5043793;28;21183;-60
2022/11/15 12:05:57;;;;;;;;;;;;;;;9.12;72.50;101107.50;5056702;28;20281;-56
2022/11/15 12:08:22;;;;;;;;;;;;;;;9.16;72.41;101102.94;5046764;28;19939;-60
2022/11/15 12:10:50;;;;;;;;;;;;;;;9.18;72.49;101100.25;5046977;28;20431;-57
2022/11/15 12:13:18;;;;;;;;;;;;;;;9.21;72.37;101105.38;5044475;28;19927;-58
2022/11/15 12:15:48;;;;;;;;;;;;;;;9.25;72.30;101106.94;5045928;28;19928;-58
2022/11/15 12:18:15;;;;;;;;;;;;;;;9.27;72.36;101103.31;5052614;28;20011;-55
2022/11/15 12:20:42;;;;;;;;;;;;;;;9.30;72.13;101110.22;5053743;28;19913;-58
2022/11/15 12:23:17;;;;;;;;;;;;;;;9.28;72.15;101096.28;5044036;28;19931;-56
2022/11/15 12:25:51;;;;;;;;;;;;;;;9.27;72.50;101097.22;5037888;28;19948;-55
2022/11/15 12:28:25;;;;;;;;;;;;;;;9.25;72.59;101097.25;5042216;28;19947;-57
2022/11/15 12:31:02;;;;;;;;;;;;;;;9.19;72.65;101091.44;5046523;28;20467;-57
2022/11/15 12:33:38;;;;;;;;;;;;;;;9.17;72.59;101090.66;5046664;28;20375;-56
2022/11/15 12:36:10;;;;;;;;;;;;;;;9.18;72.37;101095.00;5043582;28;19970;-57
2022/11/15 12:38:47;;;;;;;;;;;;;;;9.16;72.55;101095.06;5030761;28;19920;-57
2022/11/15 12:41:17;;;;;;;;;;;;;;;9.11;72.93;101089.19;5043442;28;19913;-58
2022/11/15 12:43:43;;;;;;;;;;;;;;;9.10;72.94;101088.34;5042404;28;20773;-57
2022/11/15 12:46:31;;;;;;;;;;;;;;;9.05;73.13;101086.84;5047828;28;19964;-56
2022/11/15 12:49:00;;;;;;;;;;;;;;;9.07;73.08;101083.22;4998928;28;20016;-57
2022/11/15 12:51:44;;;;;;;;;;;;;;;9.11;73.11;101079.53;5049586;28;19923;-57
2022/11/15 12:54:21;;;;;;;;;;;;;;;9.14;73.18;101074.16;5043216;28;19925;-58
2022/11/15 12:57:06;;;;;;;;;;;;;;;9.15;73.14;101078.47;5047710;28;20298;-56
2022/11/15 12:59:59;;;;;;;;;;;;;;;9.18;73.17;101066.13;5045453;28;19920;-56
2022/11/15 13:02:33;;;;;;;;;;;;;;;9.20;73.13;101066.91;5042009;28;19967;-58
2022/11/15 13:05:19;;;;;;;;;;;;;;;9.17;73.16;101067.91;5041106;28;19952;-57
2022/11/15 13:07:45;;;;;;;;;;;;;;;9.21;73.11;101065.97;5047983;28;19917;-56
2022/11/15 13:10:10;;;;;;;;;;;;;;;9.19;73.14;101071.31;5039196;28;20067;-56
2022/11/15 13:12:40;;;;;;;;;;;;;;;9.18;73.51;101081.88;5047055;28;19927;-57